Test XHTML 1.0 Strict Page for WU-History Testing
Station Historical Data
Daily Summary for May 21, 2017 Units:  Both    English   Metric
« Previous Day
Next Day »
Daily Weekly Monthly Yearly Custom
  High: Low: Average:
Temperature: 65.1 °F /  18.4 °C 40.3 °F /  4.6 °C 53 °F /  11.7 °C
Dew Point: 53.4 °F /  11.9 °C 40.3 °F /  4.6 °C 48.3 °F /  9.1 °C
Humidity: 100 % 57 % 86 %
Wind Speed: 11.5 mph /  18.5 km/h - 2 mph /  3.2 km/h
Wind Gust: 11.5 mph /  18.5 km/h - -
Wind:- - South
Pressure: 30.22 in /  1023.2 hPa 30.11 in /  1019.5 hPa -
Precipitation: 0.00 in /  0 mm    
Historical Graphs
 
 
Weather-Above Climate History
Untitled
Tabular Data for May 21, 2017
Time Temperature Dew Point Pressure Wind Wind Speed Wind Gust Humidity Rainfall Rate (Hourly) solar Conditions
00:01 43.9 °F /  6.6 °C 43.9 °F /  6.6 °C 30.13 in /  1020.2 hPa Calm     100 % 0.00 in /  0 mm 0.0 W/m2 CLR
00:06 43.9 °F /  6.6 °C 43.9 °F /  6.6 °C 30.14 in /  1020.5 hPa Calm     100 % 0.00 in /  0 mm 0.0 W/m2 CLR
00:11 44.1 °F /  6.7 °C 44.1 °F /  6.7 °C 30.14 in /  1020.5 hPa Calm     100 % 0.00 in /  0 mm 30.0 W/m2 CLR
00:16 44.1 °F /  6.7 °C 44.1 °F /  6.7 °C 30.14 in /  1020.5 hPa Calm     100 % 0.00 in /  0 mm 0.0 W/m2 CLR
00:21 43.9 °F /  6.6 °C 43.9 °F /  6.6 °C 30.14 in /  1020.5 hPa Calm     100 % 0.00 in /  0 mm 0.0 W/m2 CLR
00:26 43.7 °F /  6.5 °C 43.7 °F /  6.5 °C 30.14 in /  1020.5 hPa Calm     100 % 0.00 in /  0 mm 20.0 W/m2 CLR
00:31 43.7 °F /  6.5 °C 43.7 °F /  6.5 °C 30.14 in /  1020.5 hPa Calm     100 % 0.00 in /  0 mm 0.0 W/m2 CLR
00:37 43.5 °F /  6.4 °C 43.5 °F /  6.4 °C 30.14 in /  1020.5 hPa Calm     100 % 0.00 in /  0 mm 0.0 W/m2 CLR
00:42 43.7 °F /  6.5 °C 43.7 °F /  6.5 °C 30.14 in /  1020.5 hPa Calm     100 % 0.00 in /  0 mm 0.0 W/m2 CLR
00:47 43.5 °F /  6.4 °C 43.5 °F /  6.4 °C 30.14 in /  1020.5 hPa Calm     100 % 0.00 in /  0 mm 0.0 W/m2 CLR
00:52 43.7 °F /  6.5 °C 43.7 °F /  6.5 °C 30.14 in /  1020.5 hPa Calm     100 % 0.00 in /  0 mm 0.0 W/m2 CLR
00:57 43.7 °F /  6.5 °C 43.7 °F /  6.5 °C 30.14 in /  1020.5 hPa Calm     100 % 0.00 in /  0 mm 0.0 W/m2 CLR
01:02 43.7 °F /  6.5 °C 43.7 °F /  6.5 °C 30.15 in /  1020.9 hPa Calm     100 % 0.00 in /  0 mm 0.0 W/m2 RA
01:07 43.5 °F /  6.4 °C 43.5 °F /  6.4 °C 30.15 in /  1020.9 hPa Calm     100 % 0.00 in /  0 mm 0.0 W/m2 RA
01:12 43.7 °F /  6.5 °C 43.7 °F /  6.5 °C 30.15 in /  1020.9 hPa Calm     100 % 0.00 in /  0 mm 17.5 W/m2 CLR
01:17 43.7 °F /  6.5 °C 43.7 °F /  6.5 °C 30.15 in /  1020.9 hPa Calm     100 % 0.00 in /  0 mm 0.0 W/m2 CLR
01:22 43.7 °F /  6.5 °C 43.7 °F /  6.5 °C 30.15 in /  1020.9 hPa Calm     100 % 0.00 in /  0 mm 0.0 W/m2 CLR
01:26 43.5 °F /  6.4 °C 43.5 °F /  6.4 °C 30.15 in /  1020.9 hPa Calm     100 % 0.00 in /  0 mm 17.5 W/m2 CLR
01:31 43.5 °F /  6.4 °C 43.5 °F /  6.4 °C 30.15 in /  1020.9 hPa Calm     100 % 0.00 in /  0 mm 0.0 W/m2 CLR
01:36 43.5 °F /  6.4 °C 43.5 °F /  6.4 °C 30.15 in /  1020.9 hPa Calm     100 % 0.00 in /  0 mm 0.0 W/m2 CLR
01:41 43.2 °F /  6.2 °C 43.2 °F /  6.2 °C 30.15 in /  1020.9 hPa SE 1.5 mph /  2.4 km/h 1.5 mph /  2.4 km/h 100 % 0.00 in /  0 mm 0.0 W/m2 CLR
01:46 42.8 °F /  6 °C 42.8 °F /  6 °C 30.15 in /  1020.9 hPa Calm     100 % 0.00 in /  0 mm 25.0 W/m2 CLR
01:51 42.6 °F /  5.9 °C 42.6 °F /  5.9 °C 30.15 in /  1020.9 hPa Calm     100 % 0.00 in /  0 mm 0.0 W/m2 CLR
01:56 42.8 °F /  6 °C 42.8 °F /  6 °C 30.15 in /  1020.9 hPa Calm     100 % 0.00 in /  0 mm 0.0 W/m2 CLR
02:01 42.6 °F /  5.9 °C 42.6 °F /  5.9 °C 30.15 in /  1020.9 hPa Calm     100 % 0.00 in /  0 mm 17.5 W/m2 CLR
02:06 42.4 °F /  5.8 °C 42.4 °F /  5.8 °C 30.15 in /  1020.9 hPa Calm     100 % 0.00 in /  0 mm 0.0 W/m2 CLR
02:12 42.4 °F /  5.8 °C 42.4 °F /  5.8 °C 30.15 in /  1020.9 hPa Calm     100 % 0.00 in /  0 mm 0.0 W/m2 CLR
02:17 42.4 °F /  5.8 °C 42.4 °F /  5.8 °C 30.15 in /  1020.9 hPa Calm     100 % 0.00 in /  0 mm 22.5 W/m2 CLR
02:22 42.1 °F /  5.6 °C 42.1 °F /  5.6 °C 30.15 in /  1020.9 hPa Calm     100 % 0.00 in /  0 mm 0.0 W/m2 CLR
02:27 41.9 °F /  5.5 °C 41.9 °F /  5.5 °C 30.15 in /  1020.9 hPa SE 1.2 mph /  1.9 km/h   100 % 0.00 in /  0 mm 0.0 W/m2 CLR
02:32 41.5 °F /  5.3 °C 41.5 °F /  5.3 °C 30.16 in /  1021.2 hPa Calm     100 % 0.00 in /  0 mm 25.0 W/m2 CLR
02:37 41.4 °F /  5.2 °C 41.4 °F /  5.2 °C 30.15 in /  1020.9 hPa Calm     100 % 0.00 in /  0 mm 15.0 W/m2 CLR
02:42 41.4 °F /  5.2 °C 41.4 °F /  5.2 °C 30.16 in /  1021.2 hPa Calm     100 % 0.00 in /  0 mm 0.0 W/m2 CLR
02:47 41.4 °F /  5.2 °C 41.4 °F /  5.2 °C 30.16 in /  1021.2 hPa Calm     100 % 0.00 in /  0 mm 15.0 W/m2 CLR
02:52 41.4 °F /  5.2 °C 41.4 °F /  5.2 °C 30.16 in /  1021.2 hPa Calm     100 % 0.00 in /  0 mm 35.0 W/m2 CLR
02:57 41.0 °F /  5 °C 41.0 °F /  5 °C 30.16 in /  1021.2 hPa Calm     100 % 0.00 in /  0 mm 0.0 W/m2 CLR
03:02 40.8 °F /  4.9 °C 40.8 °F /  4.9 °C 30.16 in /  1021.2 hPa Calm     100 % 0.00 in /  0 mm 17.5 W/m2
03:07 40.8 °F /  4.9 °C 40.8 °F /  4.9 °C 30.16 in /  1021.2 hPa Calm     100 % 0.00 in /  0 mm 17.5 W/m2
03:12 40.8 °F /  4.9 °C 40.8 °F /  4.9 °C 30.16 in /  1021.2 hPa Calm     100 % 0.00 in /  0 mm 0.0 W/m2
03:17 40.6 °F /  4.8 °C 40.6 °F /  4.8 °C 30.16 in /  1021.2 hPa Calm     100 % 0.00 in /  0 mm 20.0 W/m2
03:23 40.5 °F /  4.7 °C 40.5 °F /  4.7 °C 30.16 in /  1021.2 hPa SSE 0.1 mph /  0.2 km/h   100 % 0.00 in /  0 mm 32.5 W/m2
03:28 40.6 °F /  4.8 °C 40.6 °F /  4.8 °C 30.16 in /  1021.2 hPa Calm     100 % 0.00 in /  0 mm 0.0 W/m2
03:33 40.8 °F /  4.9 °C 40.8 °F /  4.9 °C 30.16 in /  1021.2 hPa Calm     100 % 0.00 in /  0 mm 22.5 W/m2
03:38 40.8 °F /  4.9 °C 40.8 °F /  4.9 °C 30.16 in /  1021.2 hPa Calm     100 % 0.00 in /  0 mm 32.5 W/m2
03:43 40.8 °F /  4.9 °C 40.8 °F /  4.9 °C 30.16 in /  1021.2 hPa Calm     100 % 0.00 in /  0 mm 15.0 W/m2
03:48 40.8 °F /  4.9 °C 40.8 °F /  4.9 °C 30.16 in /  1021.2 hPa Calm     100 % 0.00 in /  0 mm 0.0 W/m2
03:53 40.8 °F /  4.9 °C 40.8 °F /  4.9 °C 30.16 in /  1021.2 hPa Calm     100 % 0.00 in /  0 mm 17.5 W/m2
03:58 40.8 °F /  4.9 °C 40.8 °F /  4.9 °C 30.16 in /  1021.2 hPa Calm     100 % 0.00 in /  0 mm 17.5 W/m2
04:03 40.8 °F /  4.9 °C 40.8 °F /  4.9 °C 30.16 in /  1021.2 hPa Calm     100 % 0.00 in /  0 mm 0.0 W/m2
04:08 41.0 °F /  5 °C 41.0 °F /  5 °C 30.17 in /  1021.6 hPa Calm     100 % 0.00 in /  0 mm 17.5 W/m2 CLR
04:13 41.0 °F /  5 °C 41.0 °F /  5 °C 30.17 in /  1021.6 hPa Calm     100 % 0.00 in /  0 mm 17.5 W/m2
04:18 40.8 °F /  4.9 °C 40.8 °F /  4.9 °C 30.17 in /  1021.6 hPa Calm     100 % 0.00 in /  0 mm 0.0 W/m2
04:23 40.8 °F /  4.9 °C 40.8 °F /  4.9 °C 30.17 in /  1021.6 hPa Calm     100 % 0.00 in /  0 mm 20.0 W/m2
04:29 40.8 °F /  4.9 °C 40.8 °F /  4.9 °C 30.17 in /  1021.6 hPa Calm     100 % 0.00 in /  0 mm 15.0 W/m2
04:34 40.6 °F /  4.8 °C 40.6 °F /  4.8 °C 30.17 in /  1021.6 hPa Calm     100 % 0.00 in /  0 mm 0.0 W/m2
04:39 40.5 °F /  4.7 °C 40.5 °F /  4.7 °C 30.17 in /  1021.6 hPa Calm     100 % 0.00 in /  0 mm 20.0 W/m2
04:44 40.5 °F /  4.7 °C 40.5 °F /  4.7 °C 30.17 in /  1021.6 hPa Calm     100 % 0.00 in /  0 mm 37.5 W/m2
04:49 40.5 °F /  4.7 °C 40.5 °F /  4.7 °C 30.17 in /  1021.6 hPa Calm     100 % 0.00 in /  0 mm 0.0 W/m2
04:54 40.5 °F /  4.7 °C 40.5 °F /  4.7 °C 30.17 in /  1021.6 hPa Calm     100 % 0.00 in /  0 mm 20.0 W/m2
04:59 40.3 °F /  4.6 °C 40.3 °F /  4.6 °C 30.17 in /  1021.6 hPa Calm     100 % 0.00 in /  0 mm 27.5 W/m2
05:04 40.3 °F /  4.6 °C 40.3 °F /  4.6 °C 30.17 in /  1021.6 hPa Calm     100 % 0.00 in /  0 mm 0.5 W/m2
05:09 40.5 °F /  4.7 °C 40.5 °F /  4.7 °C 30.17 in /  1021.6 hPa Calm     100 % 0.00 in /  0 mm 20.0 W/m2
05:14 41.0 °F /  5 °C 41.0 °F /  5 °C 30.17 in /  1021.6 hPa Calm     100 % 0.00 in /  0 mm 32.5 W/m2
05:19 41.4 °F /  5.2 °C 41.4 °F /  5.2 °C 30.17 in /  1021.6 hPa Calm     100 % 0.00 in /  0 mm 1.0 W/m2 OVC
05:24 41.7 °F /  5.4 °C 41.7 °F /  5.4 °C 30.18 in /  1021.9 hPa Calm     100 % 0.00 in /  0 mm 35.0 W/m2 OVC
05:29 41.7 °F /  5.4 °C 41.7 °F /  5.4 °C 30.18 in /  1021.9 hPa Calm     100 % 0.00 in /  0 mm 35.0 W/m2 OVC
05:34 41.7 °F /  5.4 °C 41.7 °F /  5.4 °C 30.18 in /  1021.9 hPa Calm     100 % 0.00 in /  0 mm 3.4 W/m2 OVC
05:39 41.7 °F /  5.4 °C 41.7 °F /  5.4 °C 30.18 in /  1021.9 hPa North 1.1 mph /  1.8 km/h 1.1 mph /  1.8 km/h 100 % 0.00 in /  0 mm 5.3 W/m2 OVC
05:45 41.7 °F /  5.4 °C 41.7 °F /  5.4 °C 30.18 in /  1021.9 hPa Calm     100 % 0.00 in /  0 mm 47.5 W/m2 OVC
05:50 41.7 °F /  5.4 °C 41.7 °F /  5.4 °C 30.18 in /  1021.9 hPa Calm     100 % 0.00 in /  0 mm 11.4 W/m2 OVC
05:55 42.1 °F /  5.6 °C 42.1 °F /  5.6 °C 30.18 in /  1021.9 hPa Calm     100 % 0.00 in /  0 mm 19.8 W/m2 OVC
06:00 42.6 °F /  5.9 °C 42.6 °F /  5.9 °C 30.18 in /  1021.9 hPa Calm     100 % 0.00 in /  0 mm 72.5 W/m2 OVC
06:05 43.2 °F /  6.2 °C 43.2 °F /  6.2 °C 30.18 in /  1021.9 hPa SE 2.3 mph /  3.7 km/h 2.3 mph /  3.7 km/h 100 % 0.00 in /  0 mm 19.4 W/m2 OVC
06:10 43.5 °F /  6.4 °C 43.5 °F /  6.4 °C 30.19 in /  1022.2 hPa Calm     100 % 0.00 in /  0 mm 16.2 W/m2 OVC
06:15 44.1 °F /  6.7 °C 44.1 °F /  6.7 °C 30.19 in /  1022.2 hPa Calm     100 % 0.00 in /  0 mm 60.0 W/m2 OVC
06:20 44.1 °F /  6.7 °C 44.1 °F /  6.7 °C 30.19 in /  1022.2 hPa Calm     100 % 0.00 in /  0 mm 24.7 W/m2 OVC
06:25 44.4 °F /  6.9 °C 44.4 °F /  6.9 °C 30.19 in /  1022.2 hPa Calm     100 % 0.00 in /  0 mm 44.2 W/m2 OVC
06:30 45.0 °F /  7.2 °C 45.0 °F /  7.2 °C 30.19 in /  1022.2 hPa Calm     100 % 0.00 in /  0 mm 85.0 W/m2 OVC
06:35 45.3 °F /  7.4 °C 45.3 °F /  7.4 °C 30.19 in /  1022.2 hPa Calm     100 % 0.00 in /  0 mm 35.8 W/m2 OVC
06:40 45.5 °F /  7.5 °C 45.5 °F /  7.5 °C 30.19 in /  1022.2 hPa Calm     100 % 0.00 in /  0 mm 45.3 W/m2 OVC
06:45 45.9 °F /  7.7 °C 45.9 °F /  7.7 °C 30.19 in /  1022.2 hPa SE 4.0 mph /  6.4 km/h 4.0 mph /  6.4 km/h 100 % 0.00 in /  0 mm 120.0 W/m2 OVC
06:50 46.2 °F /  7.9 °C 46.2 °F /  7.9 °C 30.19 in /  1022.2 hPa East 1.2 mph /  1.9 km/h 1.2 mph /  1.9 km/h 100 % 0.00 in /  0 mm 48.1 W/m2 OVC
06:55 46.4 °F /  8 °C 46.4 °F /  8 °C 30.19 in /  1022.2 hPa Calm     100 % 0.00 in /  0 mm 47.5 W/m2 OVC
07:00 46.4 °F /  8 °C 46.4 °F /  8 °C 30.19 in /  1022.2 hPa SE 2.3 mph /  3.7 km/h 2.3 mph /  3.7 km/h 100 % 0.00 in /  0 mm 43.5 W/m2 OVC
07:05 46.2 °F /  7.9 °C 46.2 °F /  7.9 °C 30.19 in /  1022.2 hPa SSE 1.2 mph /  1.9 km/h 1.2 mph /  1.9 km/h 100 % 0.00 in /  0 mm 48.2 W/m2 OVC
07:10 46.2 °F /  7.9 °C 46.2 °F /  7.9 °C 30.19 in /  1022.2 hPa SE 1.7 mph /  2.7 km/h 1.7 mph /  2.7 km/h 100 % 0.00 in /  0 mm 46.0 W/m2 OVC
07:15 46.4 °F /  8 °C 46.4 °F /  8 °C 30.19 in /  1022.2 hPa Calm     100 % 0.00 in /  0 mm 122.5 W/m2 OVC
07:21 46.4 °F /  8 °C 46.4 °F /  8 °C 30.19 in /  1022.2 hPa Calm     100 % 0.00 in /  0 mm 56.4 W/m2 OVC
07:26 46.9 °F /  8.3 °C 46.9 °F /  8.3 °C 30.21 in /  1022.9 hPa East 2.3 mph /  3.7 km/h 2.3 mph /  3.7 km/h 100 % 0.00 in /  0 mm 73.5 W/m2 OVC
07:31 47.5 °F /  8.6 °C 47.5 °F /  8.6 °C 30.21 in /  1022.9 hPa SE 1.4 mph /  2.3 km/h 1.4 mph /  2.3 km/h 100 % 0.00 in /  0 mm 185.0 W/m2 OVC
07:36 48.2 °F /  9 °C 48.2 °F /  9 °C 30.21 in /  1022.9 hPa SSE 1.2 mph /  1.9 km/h 1.2 mph /  1.9 km/h 100 % 0.00 in /  0 mm 151.5 W/m2 OVC
07:41 49.1 °F /  9.5 °C 49.1 °F /  9.5 °C 30.21 in /  1022.9 hPa Calm     100 % 0.00 in /  0 mm 153.7 W/m2 BKN
07:46 49.5 °F /  9.7 °C 49.5 °F /  9.7 °C 30.21 in /  1022.9 hPa SE 2.9 mph /  4.7 km/h 2.9 mph /  4.7 km/h 100 % 0.00 in /  0 mm 187.5 W/m2 BKN
07:51 49.8 °F /  9.9 °C 49.8 °F /  9.9 °C 30.21 in /  1022.9 hPa Calm     100 % 0.00 in /  0 mm 177.5 W/m2 BKN
07:56 50.4 °F /  10.2 °C 50.4 °F /  10.2 °C 30.21 in /  1022.9 hPa Calm     100 % 0.00 in /  0 mm 146.1 W/m2 BKN
08:01 50.7 °F /  10.4 °C 50.7 °F /  10.4 °C 30.21 in /  1022.9 hPa SSE 4.3 mph /  6.9 km/h 4.3 mph /  6.9 km/h 100 % 0.00 in /  0 mm 235.0 W/m2 BKN
08:06 51.3 °F /  10.7 °C 51.3 °F /  10.7 °C 30.21 in /  1022.9 hPa South 2.3 mph /  3.7 km/h 2.3 mph /  3.7 km/h 100 % 0.00 in /  0 mm 211.6 W/m2 BKN
08:11 51.6 °F /  10.9 °C 51.6 °F /  10.9 °C 30.21 in /  1022.9 hPa South 3.5 mph /  5.6 km/h   100 % 0.00 in /  0 mm 395.6 W/m2 BKN
08:16 52.2 °F /  11.2 °C 51.6 °F /  10.9 °C 30.21 in /  1022.9 hPa South 4.6 mph /  7.4 km/h 4.6 mph /  7.4 km/h 98 % 0.00 in /  0 mm 285.0 W/m2 BKN
08:21 53.1 °F /  11.7 °C 52.2 °F /  11.2 °C 30.21 in /  1022.9 hPa South 3.5 mph /  5.6 km/h 3.5 mph /  5.6 km/h 97 % 0.00 in /  0 mm 207.5 W/m2 SCT
08:26 52.7 °F /  11.5 °C 51.3 °F /  10.7 °C 30.21 in /  1022.9 hPa WSW 5.9 mph /  9.5 km/h 5.9 mph /  9.5 km/h 95 % 0.00 in /  0 mm 276.6 W/m2 BKN
08:31 53.1 °F /  11.7 °C 51.7 °F /  10.9 °C 30.21 in /  1022.9 hPa SSE 3.7 mph /  6 km/h 3.7 mph /  6 km/h 95 % 0.00 in /  0 mm 425.0 W/m2 BKN
08:36 53.6 °F /  12 °C 51.3 °F /  10.7 °C 30.21 in /  1022.9 hPa South 3.5 mph /  5.6 km/h 3.5 mph /  5.6 km/h 92 % 0.00 in /  0 mm 427.5 W/m2 SCT
08:41 54.3 °F /  12.4 °C 52.0 °F /  11.1 °C 30.21 in /  1022.9 hPa SE 3.5 mph /  5.6 km/h 3.5 mph /  5.6 km/h 92 % 0.00 in /  0 mm 347.0 W/m2 SCT
08:47 54.3 °F /  12.4 °C 52.0 °F /  11.1 °C 30.21 in /  1022.9 hPa SE 3.5 mph /  5.6 km/h 3.5 mph /  5.6 km/h 92 % 0.00 in /  0 mm 252.5 W/m2 BKN
08:52 54.3 °F /  12.4 °C 52.0 °F /  11.1 °C 30.22 in /  1023.2 hPa East 0.1 mph /  0.2 km/h 0.1 mph /  0.2 km/h 92 % 0.00 in /  0 mm 275.0 W/m2 BKN
08:57 54.5 °F /  12.5 °C 51.6 °F /  10.9 °C 30.21 in /  1022.9 hPa Calm     90 % 0.00 in /  0 mm 446.0 W/m2 BKN
09:02 54.9 °F /  12.7 °C 52.3 °F /  11.3 °C 30.22 in /  1023.2 hPa SW 4.1 mph /  6.6 km/h 4.1 mph /  6.6 km/h 91 % 0.00 in /  0 mm 272.5 W/m2 BKN
09:07 55.0 °F /  12.8 °C 51.2 °F /  10.7 °C 30.22 in /  1023.2 hPa SSW 4.6 mph /  7.4 km/h 4.6 mph /  7.4 km/h 87 % 0.00 in /  0 mm 275.0 W/m2 BKN
09:12 55.4 °F /  13 °C 51.6 °F /  10.9 °C 30.22 in /  1023.2 hPa WNW 3.6 mph /  5.8 km/h 3.6 mph /  5.8 km/h 87 % 0.00 in /  0 mm 292.4 W/m2 BKN
09:17 55.4 °F /  13 °C 51.9 °F /  11.1 °C 30.22 in /  1023.2 hPa SSE 3.5 mph /  5.6 km/h   88 % 0.00 in /  0 mm 282.5 W/m2 BKN
09:22 55.4 °F /  13 °C 51.9 °F /  11.1 °C 30.22 in /  1023.2 hPa South 6.1 mph /  9.8 km/h 6.1 mph /  9.8 km/h 88 % 0.00 in /  0 mm 302.5 W/m2 BKN
09:27 56.3 °F /  13.5 °C 52.5 °F /  11.4 °C 30.22 in /  1023.2 hPa SE 2.8 mph /  4.5 km/h 2.8 mph /  4.5 km/h 87 % 0.00 in /  0 mm 315.7 W/m2 BKN
09:32 56.5 °F /  13.6 °C 53.0 °F /  11.7 °C 30.22 in /  1023.2 hPa WSW 2.3 mph /  3.7 km/h 2.3 mph /  3.7 km/h 88 % 0.00 in /  0 mm 347.5 W/m2 BKN
09:37 56.8 °F /  13.8 °C 52.7 °F /  11.5 °C 30.22 in /  1023.2 hPa SSE 2.3 mph /  3.7 km/h 2.3 mph /  3.7 km/h 86 % 0.00 in /  0 mm 347.5 W/m2 BKN
09:42 57.0 °F /  13.9 °C 53.2 °F /  11.8 °C 30.22 in /  1023.2 hPa SSW 0.1 mph /  0.2 km/h   87 % 0.00 in /  0 mm 451.4 W/m2 BKN
09:47 56.8 °F /  13.8 °C 52.4 °F /  11.3 °C 30.22 in /  1023.2 hPa SSE 1.2 mph /  1.9 km/h   85 % 0.00 in /  0 mm 315.0 W/m2 BKN
09:52 56.5 °F /  13.6 °C 51.7 °F /  10.9 °C 30.22 in /  1023.2 hPa ESE 0.1 mph /  0.2 km/h   84 % 0.00 in /  0 mm 312.5 W/m2 BKN
09:57 57.0 °F /  13.9 °C 52.2 °F /  11.2 °C 30.22 in /  1023.2 hPa SSW 1.2 mph /  1.9 km/h 1.2 mph /  1.9 km/h 84 % 0.00 in /  0 mm 527.2 W/m2 BKN
10:02 57.4 °F /  14.1 °C 51.9 °F /  11.1 °C 30.22 in /  1023.2 hPa ENE 2.3 mph /  3.7 km/h 2.3 mph /  3.7 km/h 82 % 0.00 in /  0 mm 412.5 W/m2 SCT
10:07 57.7 °F /  14.3 °C 52.3 °F /  11.3 °C 30.22 in /  1023.2 hPa SSE 4.6 mph /  7.4 km/h 4.6 mph /  7.4 km/h 82 % 0.00 in /  0 mm 422.5 W/m2 SCT
10:12 58.1 °F /  14.5 °C 52.6 °F /  11.4 °C 30.22 in /  1023.2 hPa South 5.8 mph /  9.3 km/h 5.8 mph /  9.3 km/h 82 % 0.00 in /  0 mm 551.6 W/m2 SCT
10:18 58.5 °F /  14.7 °C 52.3 °F /  11.3 °C 30.22 in /  1023.2 hPa ESE 4.1 mph /  6.6 km/h 4.1 mph /  6.6 km/h 80 % 0.00 in /  0 mm 387.5 W/m2 SCT
10:23 58.5 °F /  14.7 °C 52.6 °F /  11.4 °C 30.22 in /  1023.2 hPa South 3.5 mph /  5.6 km/h 3.5 mph /  5.6 km/h 81 % 0.00 in /  0 mm 455.0 W/m2 SCT
10:28 58.5 °F /  14.7 °C 52.3 °F /  11.3 °C 30.22 in /  1023.2 hPa WSW 4.3 mph /  6.9 km/h 4.3 mph /  6.9 km/h 80 % 0.00 in /  0 mm 709.5 W/m2 SCT
10:33 58.5 °F /  14.7 °C 51.6 °F /  10.9 °C 30.22 in /  1023.2 hPa WSW 3.5 mph /  5.6 km/h 3.5 mph /  5.6 km/h 78 % 0.00 in /  0 mm 425.0 W/m2 FEW
10:38 58.5 °F /  14.7 °C 52.0 °F /  11.1 °C 30.22 in /  1023.2 hPa South 6.1 mph /  9.8 km/h 6.1 mph /  9.8 km/h 79 % 0.00 in /  0 mm 327.5 W/m2 FEW
10:43 58.5 °F /  14.7 °C 52.3 °F /  11.3 °C 30.22 in /  1023.2 hPa West 2.3 mph /  3.7 km/h 2.3 mph /  3.7 km/h 80 % 0.00 in /  0 mm 464.9 W/m2 BKN
10:48 58.6 °F /  14.8 °C 51.8 °F /  11 °C 30.22 in /  1023.2 hPa NNW 3.5 mph /  5.6 km/h 3.5 mph /  5.6 km/h 78 % 0.00 in /  0 mm 355.0 W/m2 BKN
10:53 58.6 °F /  14.8 °C 51.8 °F /  11 °C 30.22 in /  1023.2 hPa West 5.0 mph /  8 km/h 5.0 mph /  8 km/h 78 % 0.00 in /  0 mm 335.0 W/m2 BKN
10:58 59.0 °F /  15 °C 51.8 °F /  11 °C 30.22 in /  1023.2 hPa ESE 1.2 mph /  1.9 km/h 1.2 mph /  1.9 km/h 77 % 0.00 in /  0 mm 731.2 W/m2 BKN
11:03 59.4 °F /  15.2 °C 52.5 °F /  11.4 °C 30.22 in /  1023.2 hPa WSW 1.9 mph /  3.1 km/h 1.9 mph /  3.1 km/h 78 % 0.00 in /  0 mm 445.0 W/m2 SCT
11:04 59.4 °F /  15.2 °C 51.1 °F /  10.6 °C 30.22 in /  1023.2 hPa West 6.9 mph /  11.1 km/h 6.9 mph /  11.1 km/h 74 % 0.00 in /  0 mm 450.0 W/m2 SCT
11:09 59.9 °F /  15.5 °C 52.0 °F /  11.1 °C 30.22 in /  1023.2 hPa SE 5.0 mph /  8 km/h 5.0 mph /  8 km/h 75 % 0.00 in /  0 mm 355.0 W/m2 SCT
11:14 60.3 °F /  15.7 °C 52.3 °F /  11.3 °C 30.22 in /  1023.2 hPa SE 3.7 mph /  6 km/h 3.7 mph /  6 km/h 75 % 0.00 in /  0 mm 581.1 W/m2 BKN
11:19 59.7 °F /  15.4 °C 51.4 °F /  10.8 °C 30.22 in /  1023.2 hPa ESE 0.1 mph /  0.2 km/h   74 % 0.00 in /  0 mm 280.0 W/m2 BKN
11:24 59.5 °F /  15.3 °C 52.7 °F /  11.5 °C 30.22 in /  1023.2 hPa NNW 3.5 mph /  5.6 km/h 3.5 mph /  5.6 km/h 78 % 0.00 in /  0 mm 280.0 W/m2 BKN
11:29 59.0 °F /  15 °C 52.5 °F /  11.4 °C 30.22 in /  1023.2 hPa Calm     79 % 0.00 in /  0 mm 257.8 W/m2 BKN
11:34 58.1 °F /  14.5 °C 51.3 °F /  10.7 °C 30.22 in /  1023.2 hPa Calm     78 % 0.00 in /  0 mm 165.0 W/m2 BKN
11:39 57.6 °F /  14.2 °C 51.4 °F /  10.8 °C 30.22 in /  1023.2 hPa NNE 1.2 mph /  1.9 km/h   80 % 0.00 in /  0 mm 142.5 W/m2 OVC
11:44 57.2 °F /  14 °C 51.1 °F /  10.6 °C 30.22 in /  1023.2 hPa South 3.5 mph /  5.6 km/h 3.5 mph /  5.6 km/h 80 % 0.00 in /  0 mm 132.5 W/m2 OVC
11:49 57.2 °F /  14 °C 50.7 °F /  10.4 °C 30.22 in /  1023.2 hPa SSW 2.3 mph /  3.7 km/h 2.3 mph /  3.7 km/h 79 % 0.00 in /  0 mm 265.0 W/m2 OVC
11:55 58.5 °F /  14.7 °C 51.6 °F /  10.9 °C 30.22 in /  1023.2 hPa North 1.2 mph /  1.9 km/h 1.2 mph /  1.9 km/h 78 % 0.00 in /  0 mm 272.5 W/m2 BKN
12:00 58.8 °F /  14.9 °C 52.3 °F /  11.3 °C 30.22 in /  1023.2 hPa SW 1.2 mph /  1.9 km/h   79 % 0.00 in /  0 mm 275.0 W/m2 BKN
12:05 58.6 °F /  14.8 °C 51.4 °F /  10.8 °C 30.22 in /  1023.2 hPa SE 1.4 mph /  2.3 km/h 1.4 mph /  2.3 km/h 77 % 0.00 in /  0 mm 290.0 W/m2 BKN
12:10 59.2 °F /  15.1 °C 50.5 °F /  10.3 °C 30.22 in /  1023.2 hPa West 2.3 mph /  3.7 km/h   73 % 0.00 in /  0 mm 542.5 W/m2 BKN
12:15 59.9 °F /  15.5 °C 51.2 °F /  10.7 °C 30.22 in /  1023.2 hPa Calm     73 % 0.00 in /  0 mm 445.7 W/m2 BKN
12:20 59.9 °F /  15.5 °C 51.6 °F /  10.9 °C 30.22 in /  1023.2 hPa WSW 2.5 mph /  4 km/h 2.5 mph /  4 km/h 74 % 0.00 in /  0 mm 412.5 W/m2 BKN
12:25 60.6 °F /  15.9 °C 51.9 °F /  11.1 °C 30.22 in /  1023.2 hPa South 4.6 mph /  7.4 km/h 4.6 mph /  7.4 km/h 73 % 0.00 in /  0 mm 580.0 W/m2 BKN
12:30 61.5 °F /  16.4 °C 52.0 °F /  11.1 °C 30.22 in /  1023.2 hPa South 8.1 mph /  13 km/h 8.1 mph /  13 km/h 71 % 0.00 in /  0 mm 609.1 W/m2 FEW
12:35 61.7 °F /  16.5 °C 51.8 °F /  11 °C 30.22 in /  1023.2 hPa SE 3.0 mph /  4.8 km/h 3.0 mph /  4.8 km/h 70 % 0.00 in /  0 mm 643.0 W/m2 FEW
12:40 61.7 °F /  16.5 °C 51.0 °F /  10.6 °C 30.22 in /  1023.2 hPa South 4.8 mph /  7.7 km/h 4.8 mph /  7.7 km/h 68 % 0.00 in /  0 mm 260.0 W/m2 BKN
12:45 60.8 °F /  16 °C 52.1 °F /  11.2 °C 30.22 in /  1023.2 hPa South 9.0 mph /  14.5 km/h 9.0 mph /  14.5 km/h 73 % 0.00 in /  0 mm 190.0 W/m2 BKN
12:50 59.5 °F /  15.3 °C 50.9 °F /  10.5 °C 30.22 in /  1023.2 hPa SW 0.1 mph /  0.2 km/h   73 % 0.00 in /  0 mm 258.9 W/m2 BKN
12:55 59.5 °F /  15.3 °C 51.2 °F /  10.7 °C 30.22 in /  1023.2 hPa South 4.6 mph /  7.4 km/h 4.6 mph /  7.4 km/h 74 % 0.00 in /  0 mm 330.0 W/m2 BKN
13:00 60.1 °F /  15.6 °C 51.8 °F /  11 °C 30.22 in /  1023.2 hPa WSW 5.1 mph /  8.2 km/h 5.1 mph /  8.2 km/h 74 % 0.00 in /  0 mm 272.5 W/m2 BKN
13:05 60.3 °F /  15.7 °C 51.6 °F /  10.9 °C 30.22 in /  1023.2 hPa SSW 3.9 mph /  6.3 km/h 3.9 mph /  6.3 km/h 73 % 0.00 in /  0 mm 562.0 W/m2 BKN
13:10 61.2 °F /  16.2 °C 51.3 °F /  10.7 °C 30.21 in /  1022.9 hPa ENE 5.8 mph /  9.3 km/h 5.8 mph /  9.3 km/h 70 % 0.00 in /  0 mm 487.5 W/m2 BKN
13:15 62.1 °F /  16.7 °C 51.4 °F /  10.8 °C 30.21 in /  1022.9 hPa SSE 1.2 mph /  1.9 km/h   68 % 0.00 in /  0 mm 422.5 W/m2 SCT
13:20 62.4 °F /  16.9 °C 51.7 °F /  10.9 °C 30.22 in /  1023.2 hPa ENE 1.2 mph /  1.9 km/h 1.2 mph /  1.9 km/h 68 % 0.00 in /  0 mm 571.9 W/m2 SCT
13:25 62.1 °F /  16.7 °C 51.4 °F /  10.8 °C 30.22 in /  1023.2 hPa West 2.3 mph /  3.7 km/h 2.3 mph /  3.7 km/h 68 % 0.00 in /  0 mm 340.0 W/m2 BKN
13:30 61.7 °F /  16.5 °C 51.8 °F /  11 °C 30.22 in /  1023.2 hPa SSE 1.5 mph /  2.4 km/h 1.5 mph /  2.4 km/h 70 % 0.00 in /  0 mm 287.5 W/m2 BKN
13:35 61.3 °F /  16.3 °C 51.1 °F /  10.6 °C 30.21 in /  1022.9 hPa SSE 3.5 mph /  5.6 km/h 3.5 mph /  5.6 km/h 69 % 0.00 in /  0 mm 359.9 W/m2 BKN
13:40 60.8 °F /  16 °C 51.3 °F /  10.7 °C 30.21 in /  1022.9 hPa West 5.8 mph /  9.3 km/h 5.8 mph /  9.3 km/h 71 % 0.00 in /  0 mm 282.5 W/m2 BKN
13:46 60.8 °F /  16 °C 52.5 °F /  11.4 °C 30.21 in /  1022.9 hPa Calm     74 % 0.00 in /  0 mm 285.0 W/m2 BKN
13:51 60.8 °F /  16 °C 51.7 °F /  10.9 °C 30.21 in /  1022.9 hPa West 1.5 mph /  2.4 km/h 1.5 mph /  2.4 km/h 72 % 0.00 in /  0 mm 397.8 W/m2 BKN
13:56 61.2 °F /  16.2 °C 52.1 °F /  11.2 °C 30.21 in /  1022.9 hPa West 1.2 mph /  1.9 km/h 1.2 mph /  1.9 km/h 72 % 0.00 in /  0 mm 295.0 W/m2 BKN
14:01 60.8 °F /  16 °C 51.7 °F /  10.9 °C 30.21 in /  1022.9 hPa SE 2.3 mph /  3.7 km/h   72 % 0.00 in /  0 mm 312.5 W/m2 BKN
14:06 61.7 °F /  16.5 °C 52.6 °F /  11.4 °C 30.21 in /  1022.9 hPa South 2.9 mph /  4.7 km/h 2.9 mph /  4.7 km/h 72 % 0.00 in /  0 mm 533.8 W/m2 BKN
14:11 62.6 °F /  17 °C 52.3 °F /  11.3 °C 30.21 in /  1022.9 hPa NNW 5.8 mph /  9.3 km/h   69 % 0.00 in /  0 mm 622.5 W/m2 SCT
14:16 62.6 °F /  17 °C 52.3 °F /  11.3 °C 30.21 in /  1022.9 hPa SSE 3.5 mph /  5.6 km/h 3.5 mph /  5.6 km/h 69 % 0.00 in /  0 mm 411.2 W/m2 FEW
14:21 63.0 °F /  17.2 °C 52.6 °F /  11.4 °C 30.20 in /  1022.6 hPa SSE 4.6 mph /  7.4 km/h 4.6 mph /  7.4 km/h 69 % 0.00 in /  0 mm 661.6 W/m2 SCT
14:26 63.0 °F /  17.2 °C 51.0 °F /  10.6 °C 30.20 in /  1022.6 hPa NW 5.8 mph /  9.3 km/h   65 % 0.00 in /  0 mm 472.5 W/m2 SCT
14:31 63.3 °F /  17.4 °C 53.4 °F /  11.9 °C 30.20 in /  1022.6 hPa SSE 5.8 mph /  9.3 km/h 5.8 mph /  9.3 km/h 70 % 0.00 in /  0 mm 488.2 W/m2 SCT
14:36 63.1 °F /  17.3 °C 52.8 °F /  11.6 °C 30.20 in /  1022.6 hPa SSW 6.6 mph /  10.6 km/h 6.6 mph /  10.6 km/h 69 % 0.00 in /  0 mm 635.1 W/m2 FEW
14:41 63.3 °F /  17.4 °C 51.3 °F /  10.7 °C 30.20 in /  1022.6 hPa SW 8.1 mph /  13 km/h 8.1 mph /  13 km/h 65 % 0.00 in /  0 mm 482.5 W/m2 FEW
14:46 63.5 °F /  17.5 °C 51.1 °F /  10.6 °C 30.19 in /  1022.2 hPa SSE 6.2 mph /  10 km/h 6.2 mph /  10 km/h 64 % 0.00 in /  0 mm 500.1 W/m2 FEW
14:51 63.7 °F /  17.6 °C 51.7 °F /  10.9 °C 30.20 in /  1022.6 hPa East 2.8 mph /  4.5 km/h 2.8 mph /  4.5 km/h 65 % 0.00 in /  0 mm 475.6 W/m2 SCT
14:56 63.7 °F /  17.6 °C 51.7 °F /  10.9 °C 30.19 in /  1022.2 hPa SSE 5.0 mph /  8 km/h 5.0 mph /  8 km/h 65 % 0.00 in /  0 mm 490.0 W/m2 SCT
15:01 63.9 °F /  17.7 °C 51.9 °F /  11.1 °C 30.19 in /  1022.2 hPa South 4.8 mph /  7.7 km/h 4.8 mph /  7.7 km/h 65 % 0.00 in /  0 mm 484.1 W/m2 BKN
15:06 64.0 °F /  17.8 °C 51.6 °F /  10.9 °C 30.19 in /  1022.2 hPa South 4.4 mph /  7.1 km/h 4.4 mph /  7.1 km/h 64 % 0.00 in /  0 mm 344.4 W/m2 BKN
15:11 63.7 °F /  17.6 °C 52.1 °F /  11.2 °C 30.19 in /  1022.2 hPa WSW 1.5 mph /  2.4 km/h 1.5 mph /  2.4 km/h 66 % 0.00 in /  0 mm 417.5 W/m2 BKN
15:16 63.5 °F /  17.5 °C 51.5 °F /  10.8 °C 30.19 in /  1022.2 hPa Calm     65 % 0.00 in /  0 mm 342.7 W/m2 BKN
15:21 63.9 °F /  17.7 °C 51.9 °F /  11.1 °C 30.19 in /  1022.2 hPa SE 5.8 mph /  9.3 km/h 5.8 mph /  9.3 km/h 65 % 0.00 in /  0 mm 405.6 W/m2 BKN
15:26 63.9 °F /  17.7 °C 51.9 °F /  11.1 °C 30.19 in /  1022.2 hPa SSE 4.6 mph /  7.4 km/h 4.6 mph /  7.4 km/h 65 % 0.00 in /  0 mm 355.0 W/m2 BKN
15:32 64.4 °F /  18 °C 51.5 °F /  10.8 °C 30.19 in /  1022.2 hPa SW 3.5 mph /  5.6 km/h 3.5 mph /  5.6 km/h 63 % 0.00 in /  0 mm 617.0 W/m2 BKN
15:37 65.1 °F /  18.4 °C 50.4 °F /  10.2 °C 30.19 in /  1022.2 hPa South 4.7 mph /  7.6 km/h 4.7 mph /  7.6 km/h 59 % 0.00 in /  0 mm 606.0 W/m2 FEW
15:42 64.4 °F /  18 °C 49.8 °F /  9.9 °C 30.18 in /  1021.9 hPa SW 4.6 mph /  7.4 km/h   59 % 0.00 in /  0 mm 389.6 W/m2 FEW
15:47 64.4 °F /  18 °C 50.7 °F /  10.4 °C 30.18 in /  1021.9 hPa SSE 6.9 mph /  11.1 km/h 6.9 mph /  11.1 km/h 61 % 0.00 in /  0 mm 580.0 W/m2 SCT
15:52 64.9 °F /  18.3 °C 50.3 °F /  10.2 °C 30.18 in /  1021.9 hPa NNW 5.8 mph /  9.3 km/h 5.8 mph /  9.3 km/h 59 % 0.00 in /  0 mm 310.1 W/m2 FEW
15:57 64.8 °F /  18.2 °C 51.0 °F /  10.6 °C 30.17 in /  1021.6 hPa SSE 4.6 mph /  7.4 km/h   61 % 0.00 in /  0 mm 270.0 W/m2 SCT
16:02 64.2 °F /  17.9 °C 50.9 °F /  10.5 °C 30.17 in /  1021.6 hPa SSE 4.6 mph /  7.4 km/h 4.6 mph /  7.4 km/h 62 % 0.00 in /  0 mm 241.2 W/m2 BKN
16:07 63.5 °F /  17.5 °C 50.2 °F /  10.1 °C 30.18 in /  1021.9 hPa SE 1.5 mph /  2.4 km/h 1.5 mph /  2.4 km/h 62 % 0.00 in /  0 mm 185.5 W/m2 BKN
16:12 63.9 °F /  17.7 °C 50.6 °F /  10.3 °C 30.17 in /  1021.6 hPa SSE 4.6 mph /  7.4 km/h 4.6 mph /  7.4 km/h 62 % 0.00 in /  0 mm 630.0 W/m2 BKN
16:17 63.7 °F /  17.6 °C 50.4 °F /  10.2 °C 30.17 in /  1021.6 hPa SSE 8.1 mph /  13 km/h 8.1 mph /  13 km/h 62 % 0.00 in /  0 mm 175.3 W/m2 BKN
16:22 63.0 °F /  17.2 °C 49.7 °F /  9.8 °C 30.17 in /  1021.6 hPa SE 5.1 mph /  8.2 km/h 5.1 mph /  8.2 km/h 62 % 0.00 in /  0 mm 183.1 W/m2 BKN
16:27 62.8 °F /  17.1 °C 50.0 °F /  10 °C 30.17 in /  1021.6 hPa ESE 4.6 mph /  7.4 km/h 4.6 mph /  7.4 km/h 63 % 0.00 in /  0 mm 407.5 W/m2 BKN
16:32 62.6 °F /  17 °C 48.5 °F /  9.2 °C 30.17 in /  1021.6 hPa ESE 6.9 mph /  11.1 km/h 6.9 mph /  11.1 km/h 60 % 0.00 in /  0 mm 210.0 W/m2 BKN
16:37 62.4 °F /  16.9 °C 50.5 °F /  10.3 °C 30.17 in /  1021.6 hPa SE 3.5 mph /  5.6 km/h 3.5 mph /  5.6 km/h 65 % 0.00 in /  0 mm 135.9 W/m2 BKN
16:42 62.4 °F /  16.9 °C 51.7 °F /  10.9 °C 30.17 in /  1021.6 hPa South 10.1 mph /  16.3 km/h 10.1 mph /  16.3 km/h 68 % 0.00 in /  0 mm 130.7 W/m2 BKN
16:47 63.5 °F /  17.5 °C 48.5 °F /  9.2 °C 30.16 in /  1021.2 hPa South 9.5 mph /  15.3 km/h 9.5 mph /  15.3 km/h 58 % 0.00 in /  0 mm 570.0 W/m2 BKN
16:52 64.2 °F /  17.9 °C 48.7 °F /  9.3 °C 30.17 in /  1021.6 hPa SSE 11.5 mph /  18.5 km/h 11.5 mph /  18.5 km/h 57 % 0.00 in /  0 mm 413.0 W/m2 FEW
16:57 64.2 °F /  17.9 °C 49.1 °F /  9.5 °C 30.17 in /  1021.6 hPa SSE 7.0 mph /  11.3 km/h 7.0 mph /  11.3 km/h 58 % 0.00 in /  0 mm 367.1 W/m2 CLR
17:03 64.2 °F /  17.9 °C 49.6 °F /  9.8 °C 30.17 in /  1021.6 hPa SE 4.6 mph /  7.4 km/h 4.6 mph /  7.4 km/h 59 % 0.00 in /  0 mm 270.3 W/m2 FEW
17:08 64.6 °F /  18.1 °C 49.5 °F /  9.7 °C 30.16 in /  1021.2 hPa NE 3.5 mph /  5.6 km/h 3.5 mph /  5.6 km/h 58 % 0.00 in /  0 mm 340.6 W/m2 FEW
17:13 64.0 °F /  17.8 °C 49.4 °F /  9.7 °C 30.16 in /  1021.2 hPa East 5.0 mph /  8 km/h 5.0 mph /  8 km/h 59 % 0.00 in /  0 mm 108.0 W/m2 BKN
17:18 63.1 °F /  17.3 °C 49.9 °F /  9.9 °C 30.16 in /  1021.2 hPa SW 4.0 mph /  6.4 km/h 4.0 mph /  6.4 km/h 62 % 0.00 in /  0 mm 82.5 W/m2 BKN
17:23 62.8 °F /  17.1 °C 48.2 °F /  9 °C 30.16 in /  1021.2 hPa SSE 5.8 mph /  9.3 km/h 5.8 mph /  9.3 km/h 59 % 0.00 in /  0 mm 81.8 W/m2 BKN
17:28 62.6 °F /  17 °C 49.0 °F /  9.4 °C 30.15 in /  1020.9 hPa SSE 5.8 mph /  9.3 km/h 5.8 mph /  9.3 km/h 61 % 0.00 in /  0 mm 200.0 W/m2 OVC
17:33 62.2 °F /  16.8 °C 49.1 °F /  9.5 °C 30.15 in /  1020.9 hPa South 1.7 mph /  2.7 km/h 1.7 mph /  2.7 km/h 62 % 0.00 in /  0 mm 69.3 W/m2 OVC
17:38 62.1 °F /  16.7 °C 51.4 °F /  10.8 °C 30.15 in /  1020.9 hPa South 1.8 mph /  2.9 km/h 1.8 mph /  2.9 km/h 68 % 0.00 in /  0 mm 59.1 W/m2 OVC
17:43 61.9 °F /  16.6 °C 48.7 °F /  9.3 °C 30.15 in /  1020.9 hPa SSE 3.5 mph /  5.6 km/h 3.5 mph /  5.6 km/h 62 % 0.00 in /  0 mm 54.8 W/m2 OVC
17:48 61.9 °F /  16.6 °C 51.2 °F /  10.7 °C 30.15 in /  1020.9 hPa West 4.8 mph /  7.7 km/h 4.8 mph /  7.7 km/h 68 % 0.00 in /  0 mm 227.5 W/m2 OVC
17:53 61.5 °F /  16.4 °C 51.6 °F /  10.9 °C 30.15 in /  1020.9 hPa South 6.1 mph /  9.8 km/h 6.1 mph /  9.8 km/h 70 % 0.00 in /  0 mm 35.9 W/m2 OVC
17:58 61.3 °F /  16.3 °C 50.7 °F /  10.4 °C 30.14 in /  1020.5 hPa SE 1.2 mph /  1.9 km/h 1.2 mph /  1.9 km/h 68 % 0.00 in /  0 mm 41.8 W/m2 OVC
18:03 61.2 °F /  16.2 °C 49.7 °F /  9.8 °C 30.14 in /  1020.5 hPa Calm     66 % 0.00 in /  0 mm 210.0 W/m2 OVC
18:08 62.1 °F /  16.7 °C 49.7 °F /  9.8 °C 30.14 in /  1020.5 hPa Calm     64 % 0.00 in /  0 mm 136.3 W/m2 BKN
18:13 62.4 °F /  16.9 °C 49.2 °F /  9.6 °C 30.14 in /  1020.5 hPa SE 8.1 mph /  13 km/h 8.1 mph /  13 km/h 62 % 0.00 in /  0 mm 115.3 W/m2 BKN
18:18 62.4 °F /  16.9 °C 50.5 °F /  10.3 °C 30.14 in /  1020.5 hPa SE 6.9 mph /  11.1 km/h 6.9 mph /  11.1 km/h 65 % 0.00 in /  0 mm 170.0 W/m2 BKN
18:23 62.6 °F /  17 °C 51.1 °F /  10.6 °C 30.14 in /  1020.5 hPa SE 5.0 mph /  8 km/h 5.0 mph /  8 km/h 66 % 0.00 in /  0 mm 102.0 W/m2 BKN
18:28 62.4 °F /  16.9 °C 52.1 °F /  11.2 °C 30.14 in /  1020.5 hPa SE 4.6 mph /  7.4 km/h 4.6 mph /  7.4 km/h 69 % 0.00 in /  0 mm 60.7 W/m2 BKN
18:33 62.2 °F /  16.8 °C 51.9 °F /  11.1 °C 30.14 in /  1020.5 hPa East 4.3 mph /  6.9 km/h 4.3 mph /  6.9 km/h 69 % 0.00 in /  0 mm 160.0 W/m2 BKN
18:38 61.7 °F /  16.5 °C 51.8 °F /  11 °C 30.14 in /  1020.5 hPa West 2.6 mph /  4.2 km/h 2.6 mph /  4.2 km/h 70 % 0.00 in /  0 mm 78.3 W/m2 BKN
18:43 61.2 °F /  16.2 °C 52.8 °F /  11.6 °C 30.14 in /  1020.5 hPa SW 2.3 mph /  3.7 km/h 2.3 mph /  3.7 km/h 74 % 0.00 in /  0 mm 18.9 W/m2 BKN
18:49 61.2 °F /  16.2 °C 50.9 °F /  10.5 °C 30.14 in /  1020.5 hPa SE 3.5 mph /  5.6 km/h 3.5 mph /  5.6 km/h 69 % 0.00 in /  0 mm 137.5 W/m2 OVC
18:54 61.3 °F /  16.3 °C 49.9 °F /  9.9 °C 30.14 in /  1020.5 hPa SE 5.8 mph /  9.3 km/h 5.8 mph /  9.3 km/h 66 % 0.00 in /  0 mm 14.3 W/m2 OVC
18:59 61.3 °F /  16.3 °C 49.1 °F /  9.5 °C 30.14 in /  1020.5 hPa SSE 3.7 mph /  6 km/h 3.7 mph /  6 km/h 64 % 0.00 in /  0 mm 11.8 W/m2 OVC
19:04 60.6 °F /  15.9 °C 50.4 °F /  10.2 °C 30.14 in /  1020.5 hPa SSW 2.6 mph /  4.2 km/h 2.6 mph /  4.2 km/h 69 % 0.00 in /  0 mm 135.0 W/m2 OVC
19:09 60.4 °F /  15.8 °C 51.0 °F /  10.6 °C 30.14 in /  1020.5 hPa South 4.0 mph /  6.4 km/h 4.0 mph /  6.4 km/h 71 % 0.00 in /  0 mm 8.2 W/m2 OVC
19:14 59.9 °F /  15.5 °C 52.7 °F /  11.5 °C 30.14 in /  1020.5 hPa South 8.7 mph /  14 km/h 8.7 mph /  14 km/h 77 % 0.00 in /  0 mm 7.3 W/m2 OVC
19:19 59.7 °F /  15.4 °C 51.4 °F /  10.8 °C 30.13 in /  1020.2 hPa SE 1.5 mph /  2.4 km/h 1.5 mph /  2.4 km/h 74 % 0.00 in /  0 mm 112.5 W/m2 OVC
19:24 59.2 °F /  15.1 °C 52.0 °F /  11.1 °C 30.13 in /  1020.2 hPa Calm     77 % 0.00 in /  0 mm 4.4 W/m2 OVC
19:29 59.2 °F /  15.1 °C 50.9 °F /  10.5 °C 30.13 in /  1020.2 hPa SE 5.8 mph /  9.3 km/h 5.8 mph /  9.3 km/h 74 % 0.00 in /  0 mm 3.7 W/m2 OVC
19:34 59.0 °F /  15 °C 51.1 °F /  10.6 °C 30.13 in /  1020.2 hPa SE 1.2 mph /  1.9 km/h 1.2 mph /  1.9 km/h 75 % 0.00 in /  0 mm 105.0 W/m2 OVC
19:39 58.5 °F /  14.7 °C 52.3 °F /  11.3 °C 30.13 in /  1020.2 hPa ESE 1.7 mph /  2.7 km/h 1.7 mph /  2.7 km/h 80 % 0.00 in /  0 mm 2.2 W/m2 OVC
19:44 58.5 °F /  14.7 °C 52.0 °F /  11.1 °C 30.13 in /  1020.2 hPa SSW 3.7 mph /  6 km/h 3.7 mph /  6 km/h 79 % 0.00 in /  0 mm 1.6 W/m2 OVC
19:49 58.3 °F /  14.6 °C 51.1 °F /  10.6 °C 30.13 in /  1020.2 hPa ESE 2.3 mph /  3.7 km/h   77 % 0.00 in /  0 mm 90.0 W/m2 OVC
19:54 58.1 °F /  14.5 °C 50.9 °F /  10.5 °C 30.13 in /  1020.2 hPa Calm     77 % 0.00 in /  0 mm 0.6 W/m2 OVC
19:59 57.9 °F /  14.4 °C 51.1 °F /  10.6 °C 30.13 in /  1020.2 hPa South 1.2 mph /  1.9 km/h 1.2 mph /  1.9 km/h 78 % 0.00 in /  0 mm 0.2 W/m2 OVC
20:04 57.6 °F /  14.2 °C 51.8 °F /  11 °C 30.13 in /  1020.2 hPa SSE 1.2 mph /  1.9 km/h 1.2 mph /  1.9 km/h 81 % 0.00 in /  0 mm 70.0 W/m2 OVC
20:09 57.2 °F /  14 °C 51.8 °F /  11 °C 30.13 in /  1020.2 hPa Calm     82 % 0.00 in /  0 mm 60.0 W/m2 OVC
20:14 56.7 °F /  13.7 °C 51.2 °F /  10.7 °C 30.13 in /  1020.2 hPa Calm     82 % 0.00 in /  0 mm 60.0 W/m2 OVC
20:19 56.3 °F /  13.5 °C 50.9 °F /  10.5 °C 30.13 in /  1020.2 hPa Calm     82 % 0.00 in /  0 mm 40.0 W/m2 OVC
20:24 55.9 °F /  13.3 °C 52.1 °F /  11.2 °C 30.13 in /  1020.2 hPa Calm     87 % 0.00 in /  0 mm 55.0 W/m2 OVC
20:29 55.4 °F /  13 °C 51.6 °F /  10.9 °C 30.13 in /  1020.2 hPa Calm     87 % 0.00 in /  0 mm 40.0 W/m2 OVC
20:35 54.9 °F /  12.7 °C 51.7 °F /  10.9 °C 30.13 in /  1020.2 hPa Calm     89 % 0.00 in /  0 mm 45.0 W/m2 OVC
20:40 54.5 °F /  12.5 °C 51.3 °F /  10.7 °C 30.13 in /  1020.2 hPa Calm     89 % 0.00 in /  0 mm 22.5 W/m2 OVC
20:45 54.5 °F /  12.5 °C 51.3 °F /  10.7 °C 30.13 in /  1020.2 hPa Calm     89 % 0.00 in /  0 mm 37.5 W/m2 OVC
20:50 54.0 °F /  12.2 °C 50.8 °F /  10.4 °C 30.13 in /  1020.2 hPa Calm     89 % 0.00 in /  0 mm 40.0 W/m2 OVC
20:55 53.6 °F /  12 °C 51.0 °F /  10.6 °C 30.13 in /  1020.2 hPa Calm     91 % 0.00 in /  0 mm 35.0 W/m2 OVC
21:00 53.2 °F /  11.8 °C 51.0 °F /  10.6 °C 30.13 in /  1020.2 hPa Calm     92 % 0.00 in /  0 mm 22.5 W/m2 OVC
21:05 53.1 °F /  11.7 °C 50.5 °F /  10.3 °C 30.13 in /  1020.2 hPa Calm     91 % 0.00 in /  0 mm 20.0 W/m2 OVC
21:10 52.7 °F /  11.5 °C 50.4 °F /  10.2 °C 30.13 in /  1020.2 hPa Calm     92 % 0.00 in /  0 mm 20.0 W/m2 OVC
21:15 52.2 °F /  11.2 °C 50.2 °F /  10.1 °C 30.13 in /  1020.2 hPa Calm     93 % 0.00 in /  0 mm 0.0 W/m2 CLR
21:20 52.2 °F /  11.2 °C 50.2 °F /  10.1 °C 30.13 in /  1020.2 hPa Calm     93 % 0.00 in /  0 mm 0.0 W/m2 CLR
21:25 52.2 °F /  11.2 °C 50.2 °F /  10.1 °C 30.13 in /  1020.2 hPa Calm     93 % 0.00 in /  0 mm 17.5 W/m2 CLR
21:30 51.6 °F /  10.9 °C 49.7 °F /  9.8 °C 30.13 in /  1020.2 hPa Calm     93 % 0.00 in /  0 mm 17.5 W/m2 CLR
21:35 51.1 °F /  10.6 °C 49.7 °F /  9.8 °C 30.13 in /  1020.2 hPa Calm     95 % 0.00 in /  0 mm 0.0 W/m2 CLR
21:40 50.9 °F /  10.5 °C 49.8 °F /  9.9 °C 30.13 in /  1020.2 hPa Calm     96 % 0.00 in /  0 mm 25.0 W/m2 CLR
21:45 50.5 °F /  10.3 °C 49.7 °F /  9.8 °C 30.13 in /  1020.2 hPa Calm     97 % 0.00 in /  0 mm 17.5 W/m2 CLR
21:50 50.4 °F /  10.2 °C 49.8 °F /  9.9 °C 30.13 in /  1020.2 hPa Calm     98 % 0.00 in /  0 mm 0.0 W/m2 CLR
21:55 50.0 °F /  10 °C 49.5 °F /  9.7 °C 30.13 in /  1020.2 hPa Calm     98 % 0.00 in /  0 mm 15.0 W/m2 CLR
22:00 49.8 °F /  9.9 °C 49.6 °F /  9.8 °C 30.13 in /  1020.2 hPa Calm     99 % 0.00 in /  0 mm 27.5 W/m2 CLR
22:05 49.6 °F /  9.8 °C 49.4 °F /  9.7 °C 30.13 in /  1020.2 hPa Calm     99 % 0.00 in /  0 mm 0.0 W/m2 CLR
22:10 49.5 °F /  9.7 °C 49.2 °F /  9.6 °C 30.13 in /  1020.2 hPa Calm     99 % 0.00 in /  0 mm 27.5 W/m2 CLR
22:15 49.5 °F /  9.7 °C 49.2 °F /  9.6 °C 30.13 in /  1020.2 hPa Calm     99 % 0.00 in /  0 mm 17.5 W/m2 CLR
22:21 49.3 °F /  9.6 °C 49.3 °F /  9.6 °C 30.13 in /  1020.2 hPa Calm     100 % 0.00 in /  0 mm 0.0 W/m2 CLR
22:26 48.9 °F /  9.4 °C 48.9 °F /  9.4 °C 30.13 in /  1020.2 hPa Calm     100 % 0.00 in /  0 mm 0.0 W/m2 CLR
22:31 48.6 °F /  9.2 °C 48.6 °F /  9.2 °C 30.13 in /  1020.2 hPa Calm     100 % 0.00 in /  0 mm 30.0 W/m2 CLR
22:36 48.6 °F /  9.2 °C 48.6 °F /  9.2 °C 30.13 in /  1020.2 hPa Calm     100 % 0.00 in /  0 mm 0.0 W/m2 CLR
22:41 48.4 °F /  9.1 °C 48.4 °F /  9.1 °C 30.13 in /  1020.2 hPa Calm     100 % 0.00 in /  0 mm 0.0 W/m2 CLR
22:46 48.4 °F /  9.1 °C 48.4 °F /  9.1 °C 30.13 in /  1020.2 hPa Calm     100 % 0.00 in /  0 mm 17.5 W/m2 CLR
22:51 48.4 °F /  9.1 °C 48.4 °F /  9.1 °C 30.12 in /  1019.9 hPa Calm     100 % 0.00 in /  0 mm 0.0 W/m2 CLR
22:56 48.6 °F /  9.2 °C 48.6 °F /  9.2 °C 30.13 in /  1020.2 hPa Calm     100 % 0.00 in /  0 mm 0.0 W/m2 CLR
23:01 48.6 °F /  9.2 °C 48.6 °F /  9.2 °C 30.12 in /  1019.9 hPa Calm     100 % 0.00 in /  0 mm 20.0 W/m2 CLR
23:06 48.6 °F /  9.2 °C 48.6 °F /  9.2 °C 30.12 in /  1019.9 hPa Calm     100 % 0.00 in /  0 mm 0.0 W/m2 CLR
23:11 48.6 °F /  9.2 °C 48.6 °F /  9.2 °C 30.12 in /  1019.9 hPa Calm     100 % 0.00 in /  0 mm 0.0 W/m2 CLR
23:16 48.6 °F /  9.2 °C 48.6 °F /  9.2 °C 30.12 in /  1019.9 hPa Calm     100 % 0.00 in /  0 mm 37.5 W/m2 CLR
23:21 48.6 °F /  9.2 °C 48.6 °F /  9.2 °C 30.12 in /  1019.9 hPa Calm     100 % 0.00 in /  0 mm 0.0 W/m2 CLR
23:26 48.2 °F /  9 °C 48.2 °F /  9 °C 30.11 in /  1019.5 hPa Calm     100 % 0.00 in /  0 mm 0.0 W/m2 CLR
23:31 48.2 °F /  9 °C 48.2 °F /  9 °C 30.11 in /  1019.5 hPa Calm     100 % 0.00 in /  0 mm 32.5 W/m2 CLR
23:36 48.0 °F /  8.9 °C 48.0 °F /  8.9 °C 30.11 in /  1019.5 hPa SSE 0.1 mph /  0.2 km/h   100 % 0.00 in /  0 mm 0.0 W/m2 CLR
23:41 48.0 °F /  8.9 °C 48.0 °F /  8.9 °C 30.11 in /  1019.5 hPa Calm     100 % 0.00 in /  0 mm 0.0 W/m2 CLR
23:47 48.0 °F /  8.9 °C 48.0 °F /  8.9 °C 30.11 in /  1019.5 hPa Calm     100 % 0.00 in /  0 mm 17.5 W/m2 CLR
23:52 48.2 °F /  9 °C 48.2 °F /  9 °C 30.11 in /  1019.5 hPa SE 2.3 mph /  3.7 km/h 2.3 mph /  3.7 km/h 100 % 0.00 in /  0 mm 17.5 W/m2 CLR
23:57 48.6 °F /  9.2 °C 48.6 °F /  9.2 °C 30.11 in /  1019.5 hPa Calm     100 % 0.00 in /  0 mm 0.0 W/m2 CLR
Wether-Above
Compliments of Weather Underground - 2.25 mb
Welcome to Weather-Above
Cheddleton weather station supplies various organisations with data from our weather station one of them is the weather Underground this information displayed here is coming from the weather Underground server 

If any information is used please acknowledge the source to www weather-above.com or weather Underground